.
WxDataArchive / Data Records for 2011-05-06
2011-05-05 May 2011 2011-05-07

Data Records for Friday, 06 May 2011

Time	Temp	Chill	HIndex	Humid	Dewpt	 Wind 	HiWind	WindDir	Rain 	Barom 
-----	----	-----	------	-----	-----	------	------	-------	-----	----- 
00:00	51.7	51.7	51.7	62	39.1	0	0	---	0.00	29.982 
00:05	51.9	51.9	51.9	62	39.3	0	0	---	0.00	29.982 
00:10	52.0	52.0	52.0	62	39.4	0	0	---	0.00	29.982 
00:15	52.3	52.3	52.3	61	39.3	0	1	248	0.00	29.979 
00:20	52.5	52.5	52.5	61	39.4	0	0	---	0.00	29.979 
00:25	52.9	52.9	52.9	59	39.0	0	1	248	0.00	29.979 
00:30	53.1	53.1	53.1	58	38.7	0	1	248	0.00	29.969 
00:35	53.5	53.5	53.5	57	38.6	0	3	248	0.00	29.969 
00:40	53.8	53.8	53.8	56	38.5	0	1	248	0.00	29.969 
00:45	53.9	53.9	53.9	57	39.0	0	2	248	0.00	29.962 
00:50	54.1	54.1	54.1	55	38.3	0	4	248	0.00	29.962 
00:55	54.2	54.2	54.2	55	38.4	0	2	248	0.00	29.962 
01:00	54.2	54.2	54.2	55	38.4	0	3	225	0.00	29.960 
01:05	54.2	54.2	54.2	55	38.4	0	2	225	0.00	29.960 
01:10	54.2	54.2	54.2	54	37.9	0	3	225	0.00	29.960 
01:15	54.2	54.2	54.2	55	38.4	0	1	225	0.00	29.956 
01:20	54.2	54.2	54.2	55	38.4	0	3	225	0.00	29.956 
01:25	54.2	54.2	54.2	55	38.4	0	3	248	0.00	29.956 
01:30	54.2	54.2	54.2	55	38.4	0	3	248	0.00	29.950 
01:35	54.2	54.2	54.2	54	37.9	0	2	248	0.00	29.950 
01:40	54.4	54.4	54.4	54	38.1	1	3	248	0.00	29.950 
01:45	54.4	54.4	54.4	54	38.1	1	4	248	0.00	29.946 
01:50	54.5	54.5	54.5	54	38.2	1	4	248	0.00	29.946 
01:55	54.7	54.7	54.7	54	38.4	1	4	248	0.00	29.946 
02:00	54.5	54.5	54.5	55	38.7	0	4	248	0.00	29.943 
02:05	54.5	54.5	54.5	55	38.7	1	2	248	0.00	29.943 
02:10	54.5	54.5	54.5	56	39.1	1	2	248	0.00	29.943 
02:15	54.4	54.4	54.4	59	40.4	1	5	248	0.00	29.937 
02:20	54.4	54.4	54.4	61	41.2	1	5	248	0.00	29.937 
02:25	54.2	54.2	54.2	62	41.5	1	3	270	0.00	29.937 
02:30	54.2	54.2	54.2	67	43.5	1	6	270	0.00	29.929 
02:35	54.1	54.1	54.1	72	45.3	1	6	248	0.00	29.929 
02:40	53.8	53.8	53.8	74	45.7	2	4	225	0.00	29.929 
02:45	53.5	53.5	53.5	75	45.8	2	5	248	0.00	29.928 
02:50	53.2	53.2	53.2	76	45.8	2	5	248	0.00	29.928 
02:55	52.9	52.9	52.9	78	46.2	2	4	248	0.00	29.928 
03:00	52.8	52.8	52.8	79	46.5	2	4	248	0.00	29.923 
03:05	52.6	52.6	52.6	81	46.9	1	3	248	0.00	29.923 
03:10	52.5	52.5	52.5	82	47.2	1	3	248	0.00	29.923 
03:15	52.2	52.2	52.2	84	47.5	1	3	248	0.00	29.916 
03:20	52.0	52.0	52.0	85	47.6	1	3	248	0.00	29.916 
03:25	51.9	51.9	51.9	86	47.8	2	5	248	0.00	29.916 
03:30	51.6	51.6	51.6	86	47.5	1	3	248	0.00	29.913 
03:35	51.6	51.6	51.6	87	47.9	0	2	248	0.00	29.913 
03:40	51.4	51.4	51.4	88	48.0	1	3	248	0.00	29.913 
03:45	51.4	51.4	51.4	88	48.0	1	4	248	0.00	29.907 
03:50	51.3	51.3	51.3	88	47.9	1	3	248	0.00	29.907 
03:55	51.3	51.3	51.3	88	47.9	1	4	248	0.00	29.907 
04:00	51.3	51.3	51.3	89	48.2	1	5	248	0.00	29.902 
04:05	51.3	51.3	51.3	89	48.2	0	3	248	0.00	29.902 
04:10	51.1	51.1	51.1	90	48.3	0	3	248	0.01	29.902 
04:15	51.1	51.1	51.1	90	48.3	0	2	248	0.00	29.905 
04:20	51.0	51.0	51.0	90	48.2	0	1	248	0.00	29.905 
04:25	51.0	51.0	51.0	91	48.5	0	2	248	0.01	29.905 
04:30	51.0	51.0	51.0	91	48.5	0	2	248	0.00	29.900 
04:35	50.8	50.8	50.8	92	48.6	1	4	248	0.00	29.900 
04:40	50.8	50.8	50.8	92	48.6	1	3	248	0.00	29.900 
04:45	50.8	50.8	50.8	92	48.6	1	4	248	0.01	29.899 
04:50	50.7	50.7	50.7	92	48.5	0	2	248	0.02	29.899 
04:55	50.7	50.7	50.7	92	48.5	1	3	248	0.01	29.899 
05:00	50.7	50.7	50.7	92	48.5	1	3	248	0.01	29.898 
05:05	50.5	50.5	50.5	93	48.6	1	4	248	0.02	29.898 
05:10	50.5	50.5	50.5	93	48.6	2	3	248	0.01	29.898 
05:15	50.4	50.4	50.4	93	48.5	2	4	248	0.01	29.891 
05:20	50.4	50.4	50.4	93	48.5	2	4	248	0.02	29.891 
05:25	50.2	50.2	50.2	93	48.3	3	5	270	0.01	29.891 
05:30	50.2	50.2	50.2	93	48.3	3	6	270	0.02	29.883 
05:35	50.1	50.1	50.1	93	48.2	3	5	270	0.02	29.883 
05:40	50.1	50.1	50.1	93	48.2	3	4	292	0.01	29.883 
05:45	50.1	50.1	50.1	93	48.2	3	6	270	0.01	29.882 
05:50	50.2	50.2	50.2	93	48.3	2	3	270	0.00	29.882 
05:55	50.2	50.2	50.2	93	48.3	1	3	270	0.01	29.882 
06:00	50.1	50.1	50.1	93	48.2	1	3	270	0.00	29.881 
06:05	50.1	50.1	50.1	94	48.4	2	4	248	0.00	29.881 
06:10	50.1	50.1	50.1	94	48.4	1	3	248	0.00	29.881 
06:15	50.1	50.1	50.1	94	48.4	1	3	248	0.00	29.882 
06:20	49.9	49.9	49.9	94	48.2	0	2	248	0.01	29.882 
06:25	49.9	49.9	49.9	94	48.2	0	2	248	0.00	29.882 
06:30	49.9	49.9	49.9	94	48.2	1	3	248	0.01	29.879 
06:35	49.9	49.9	49.9	94	48.2	0	2	248	0.00	29.879 
06:40	49.8	49.8	49.8	94	48.1	0	2	248	0.01	29.879 
06:45	49.8	49.8	49.8	94	48.1	1	3	248	0.00	29.874 
06:50	49.8	49.8	49.8	94	48.1	0	1	248	0.00	29.874 
06:55	49.8	49.8	49.8	94	48.1	0	1	248	0.01	29.874 
07:00	49.8	49.8	49.8	94	48.1	0	1	248	0.00	29.875 
07:05	49.8	49.8	49.8	94	48.1	0	2	248	0.00	29.875 
07:10	49.8	49.8	49.8	95	48.4	0	2	248	0.01	29.875 
07:15	49.8	49.8	49.8	95	48.4	0	2	248	0.00	29.879 
07:20	49.8	49.8	49.8	95	48.4	0	1	248	0.00	29.879 
07:25	49.8	49.8	49.8	95	48.4	1	3	248	0.00	29.879 
07:30	49.8	49.8	49.8	95	48.4	1	3	248	0.00	29.884 
07:35	49.6	49.6	49.6	95	48.2	1	2	248	0.01	29.884 
07:40	49.6	49.6	49.6	95	48.2	0	2	248	0.00	29.884 
07:45	49.6	49.6	49.6	95	48.2	0	2	248	0.00	29.886 
07:50	49.6	49.6	49.6	95	48.2	0	2	248	0.00	29.886 
07:55	49.6	49.6	49.6	95	48.2	0	2	248	0.00	29.886 
08:00	49.6	49.6	49.6	95	48.2	1	2	248	0.00	29.887 
08:05	49.6	49.6	49.6	95	48.2	0	2	248	0.01	29.887 
08:10	49.6	49.6	49.6	95	48.2	1	3	248	0.00	29.887 
08:15	49.8	49.8	49.8	95	48.4	1	2	248	0.00	29.885 
08:20	50.1	50.1	50.1	95	48.7	1	4	248	0.00	29.885 
08:25	50.2	50.2	50.2	95	48.8	1	3	248	0.00	29.885 
08:30	50.4	50.4	50.4	96	49.3	1	3	248	0.00	29.886 
08:35	50.7	50.7	50.7	95	49.3	1	3	270	0.00	29.886 
08:40	50.8	50.8	50.8	96	49.7	1	2	270	0.00	29.886 
08:45	50.7	50.7	50.7	95	49.3	1	2	270	0.00	29.884 
08:50	50.7	50.7	50.7	95	49.3	1	2	270	0.00	29.884 
08:55	50.7	50.7	50.7	95	49.3	1	2	270	0.00	29.884 
09:00	50.7	50.7	50.7	95	49.3	1	3	270	0.00	29.886 
09:05	50.8	50.8	50.8	95	49.4	1	2	270	0.00	29.886 
09:10	51.1	51.1	51.1	95	49.7	1	3	270	0.00	29.886 
09:15	51.3	51.3	51.3	95	49.9	1	3	270	0.00	29.888 
09:20	51.7	51.7	51.7	96	50.6	1	3	270	0.00	29.888 
09:25	52.2	52.2	52.2	96	51.1	1	5	270	0.00	29.888 
09:30	52.2	52.2	52.2	95	50.8	2	4	248	0.00	29.888 
09:35	52.2	52.2	52.2	95	50.8	1	3	248	0.00	29.888 
09:40	52.2	52.2	52.2	94	50.5	1	3	248	0.00	29.888 
09:45	52.3	52.3	52.3	94	50.6	1	2	248	0.00	29.888 
09:50	52.6	52.6	52.6	94	50.9	1	4	248	0.00	29.888 
09:55	52.6	52.6	52.6	93	50.6	2	4	248	0.00	29.888 
10:00	52.8	52.8	52.8	92	50.5	1	4	292	0.00	29.887 
10:05	52.9	52.9	52.9	92	50.6	2	4	248	0.00	29.887 
10:10	53.3	53.3	53.3	91	50.7	1	4	248	0.00	29.887 
10:15	53.8	53.8	53.8	90	50.9	1	3	248	0.00	29.889 
10:20	54.1	54.1	54.1	88	50.6	2	5	270	0.00	29.889 
10:25	54.4	54.4	54.4	84	49.7	2	6	270	0.00	29.889 
10:30	54.4	54.4	54.4	81	48.7	2	4	248	0.00	29.888 
10:35	55.3	55.3	55.3	80	49.2	2	4	248	0.00	29.888 
10:40	56.3	56.3	56.3	79	49.9	2	3	248	0.00	29.888 
10:45	56.6	56.6	56.6	75	48.8	2	6	270	0.00	29.887 
10:50	56.7	56.7	56.7	73	48.1	2	4	270	0.00	29.887 
10:55	56.6	56.6	56.6	70	46.9	1	4	248	0.00	29.887 
11:00	57.0	57.0	57.0	71	47.7	1	4	270	0.00	29.886 
11:05	56.9	56.9	56.9	72	48.0	1	3	292	0.00	29.886 
11:10	57.5	57.5	57.5	71	48.2	1	5	248	0.00	29.886 
11:15	58.0	58.0	58.0	68	47.5	2	5	248	0.00	29.885 
11:20	58.6	58.6	58.6	68	48.1	2	4	270	0.00	29.885 
11:25	58.9	58.9	58.9	67	48.0	2	5	248	0.00	29.885 
11:30	58.7	58.7	58.7	63	46.1	2	5	248	0.00	29.882 
11:35	59.3	59.3	59.3	65	47.5	1	4	338	0.00	29.882 
11:40	59.6	59.6	59.6	62	46.6	2	5	248	0.00	29.882 
11:45	60.1	60.1	60.1	64	47.9	1	3	248	0.00	29.882 
11:50	59.9	59.9	59.9	65	48.1	2	4	248	0.00	29.882 
11:55	59.9	59.9	59.9	62	46.8	2	5	248	0.00	29.882 
12:00	60.1	60.1	60.1	62	47.0	1	3	315	0.00	29.884 
12:05	59.3	59.3	59.3	62	46.3	2	4	270	0.00	29.884 
12:10	59.8	59.8	59.8	63	47.2	1	4	248	0.00	29.884 
12:15	60.4	60.4	60.4	62	47.3	2	5	248	0.00	29.881 
12:20	61.0	61.0	61.0	58	46.1	2	5	248	0.00	29.881 
12:25	61.3	61.3	61.3	57	45.9	2	4	270	0.00	29.881 
12:30	62.0	62.0	62.0	60	48.0	2	5	270	0.00	29.879 
12:35	62.1	62.1	62.1	55	45.7	2	3	270	0.00	29.879 
12:40	61.5	61.5	61.5	54	44.7	2	4	248	0.00	29.879 
12:45	61.2	61.2	61.2	59	46.8	2	5	248	0.00	29.874 
12:50	61.3	61.3	61.3	54	44.5	2	6	270	0.00	29.874 
12:55	62.1	62.1	62.1	56	46.2	1	4	248	0.00	29.874 
13:00	62.3	62.3	62.3	53	44.9	3	6	270	0.00	29.868 
13:05	62.7	62.7	62.7	52	44.8	2	5	248	0.00	29.868 
13:10	62.9	62.9	62.9	51	44.5	2	5	248	0.00	29.868 
13:15	63.1	63.1	63.1	52	45.2	2	5	248	0.00	29.865 
13:20	62.9	62.9	62.9	50	44.0	2	5	315	0.00	29.865 
13:25	62.9	62.9	62.9	50	44.0	2	4	248	0.00	29.865 
13:30	62.9	62.9	62.9	49	43.4	1	4	248	0.00	29.860 
13:35	62.6	62.6	62.6	52	44.7	1	3	248	0.00	29.860 
13:40	62.0	62.0	62.0	48	42.1	2	4	338	0.00	29.860 
13:45	61.8	61.8	61.8	50	43.0	1	5	292	0.00	29.854 
13:50	61.6	61.6	61.6	47	41.2	2	5	248	0.00	29.854 
13:55	61.2	61.2	61.2	49	41.9	2	5	248	0.00	29.854 
14:00	61.6	61.6	61.6	52	43.8	1	4	292	0.00	29.855 
14:05	62.1	62.1	62.1	48	42.2	1	4	270	0.00	29.855 
14:10	62.4	62.4	62.4	50	43.5	2	4	315	0.00	29.855 
14:15	62.6	62.6	62.6	48	42.6	2	4	270	0.00	29.851 
14:20	62.3	62.3	62.3	49	42.9	2	4	248	0.00	29.851 
14:25	62.0	62.0	62.0	49	42.6	1	2	315	0.00	29.851 
14:30	61.6	61.6	61.6	50	42.8	1	2	315	0.00	29.852 
14:35	60.7	60.7	60.7	50	41.9	1	5	315	0.00	29.852 
14:40	59.0	59.0	59.0	54	42.4	1	5	270	0.00	29.852 
14:45	57.0	57.0	57.0	58	42.4	1	5	0	0.00	29.865 
14:50	56.2	56.2	56.2	60	42.5	1	4	338	0.00	29.865 
14:55	55.9	55.9	55.9	62	43.1	0	2	45	0.00	29.865 
15:00	55.9	55.9	55.9	64	43.9	0	1	45	0.00	29.856 
15:05	56.6	56.6	56.6	65	45.0	0	2	45	0.00	29.856 
15:10	58.0	58.0	58.0	65	46.3	0	1	45	0.00	29.856 
15:15	59.5	59.5	59.5	60	45.6	0	2	45	0.00	29.847 
15:20	60.2	60.2	60.2	56	44.4	0	2	315	0.00	29.847 
15:25	60.5	60.5	60.5	56	44.7	0	1	315	0.00	29.847 
15:30	60.7	60.7	60.7	55	44.4	0	1	315	0.00	29.839 
15:35	60.7	60.7	60.7	53	43.5	1	3	315	0.00	29.839 
15:40	60.7	60.7	60.7	57	45.4	1	4	315	0.00	29.839 
15:45	58.3	58.3	58.3	59	44.0	2	9	0	0.00	29.859 
15:50	56.3	56.3	56.3	65	44.7	1	6	315	0.00	29.859 
15:55	55.0	55.0	55.0	70	45.4	1	4	270	0.00	29.859 
16:00	54.2	54.2	54.2	74	46.1	0	1	270	0.01	29.860 
16:05	53.5	53.5	53.5	76	46.1	0	1	270	0.00	29.860 
16:10	53.2	53.2	53.2	78	46.5	0	1	270	0.01	29.860 
16:15	53.3	53.3	53.3	80	47.3	0	1	270	0.01	29.856 
16:20	53.8	53.8	53.8	81	48.1	0	1	270	0.00	29.856 
16:25	54.1	54.1	54.1	82	48.7	0	0	---	0.00	29.856 
16:30	54.5	54.5	54.5	83	49.4	0	1	270	0.00	29.851 
16:35	55.0	55.0	55.0	83	49.9	0	0	---	0.00	29.851 
16:40	55.3	55.3	55.3	81	49.6	0	1	270	0.00	29.851 
16:45	55.9	55.9	55.9	79	49.5	0	1	270	0.00	29.858 
16:50	56.2	56.2	56.2	76	48.7	1	5	248	0.00	29.858 
16:55	56.2	56.2	56.2	70	46.5	2	4	248	0.00	29.858 
17:00	56.2	56.2	56.2	68	45.8	0	2	270	0.00	29.852 
17:05	56.3	56.3	56.3	69	46.3	0	2	270	0.00	29.852 
17:10	56.9	56.9	56.9	67	46.1	1	4	270	0.00	29.852 
17:15	57.2	57.2	57.2	62	44.3	2	5	248	0.00	29.855 
17:20	57.3	57.3	57.3	65	45.6	1	5	225	0.00	29.855 
17:25	57.8	57.8	57.8	64	45.7	1	4	248	0.00	29.855 
17:30	58.1	58.1	58.1	62	45.1	1	3	248	0.00	29.848 
17:35	58.3	58.3	58.3	65	46.6	0	2	248	0.00	29.848 
17:40	58.4	58.4	58.4	62	45.4	0	2	248	0.00	29.848 
17:45	58.7	58.7	58.7	62	45.7	0	1	248	0.00	29.848 
17:50	58.7	58.7	58.7	59	44.4	1	3	248	0.00	29.848 
17:55	58.7	58.7	58.7	61	45.3	0	2	248	0.00	29.848 
18:00	58.7	58.7	58.7	59	44.4	1	3	248	0.00	29.847 
18:05	59.0	59.0	59.0	58	44.2	1	5	248	0.00	29.847 
18:10	59.2	59.2	59.2	56	43.5	1	4	248	0.00	29.847 
18:15	59.2	59.2	59.2	54	42.6	2	5	270	0.00	29.845 
18:20	59.3	59.3	59.3	53	42.2	2	5	248	0.00	29.845 
18:25	59.6	59.6	59.6	51	41.4	2	4	248	0.00	29.845 
18:30	59.6	59.6	59.6	49	40.4	3	6	248	0.00	29.854 
18:35	59.5	59.5	59.5	53	42.4	2	6	248	0.00	29.854 
18:40	59.2	59.2	59.2	56	43.5	1	5	225	0.00	29.854 
18:45	58.9	58.9	58.9	57	43.7	1	2	248	0.00	29.852 
18:50	59.0	59.0	59.0	57	43.8	1	4	248	0.00	29.852 
18:55	59.5	59.5	59.5	54	42.8	1	3	248	0.00	29.852 
19:00	59.9	59.9	59.9	55	43.7	1	4	248	0.00	29.849 
19:05	60.1	60.1	60.1	53	42.9	1	3	248	0.00	29.849 
19:10	60.1	60.1	60.1	51	41.9	2	5	248	0.00	29.849 
19:15	60.2	60.2	60.2	51	42.0	1	3	270	0.00	29.842 
19:20	60.2	60.2	60.2	51	42.0	1	3	270	0.00	29.842 
19:25	60.2	60.2	60.2	51	42.0	1	2	270	0.00	29.842 
19:30	60.4	60.4	60.4	49	41.1	1	3	270	0.00	29.845 
19:35	60.2	60.2	60.2	49	41.0	1	2	248	0.00	29.845 
19:40	59.9	59.9	59.9	50	41.2	1	3	248	0.00	29.845 
19:45	59.6	59.6	59.6	51	41.4	0	2	248	0.00	29.849 
19:50	59.5	59.5	59.5	52	41.9	0	2	248	0.00	29.849 
19:55	59.3	59.3	59.3	51	41.2	1	3	248	0.00	29.849 
20:00	59.3	59.3	59.3	52	41.7	1	4	248	0.00	29.854 
20:05	59.3	59.3	59.3	52	41.7	0	3	270	0.00	29.854 
20:10	59.3	59.3	59.3	53	42.2	0	2	248	0.00	29.854 
20:15	59.0	59.0	59.0	52	41.4	0	2	248	0.00	29.852 
20:20	58.9	58.9	58.9	53	41.8	0	1	248	0.00	29.852 
20:25	58.7	58.7	58.7	55	42.6	0	2	248	0.00	29.852 
20:30	58.3	58.3	58.3	56	42.7	0	1	248	0.00	29.857 
20:35	58.0	58.0	58.0	58	43.3	0	1	248	0.00	29.857 
20:40	57.6	57.6	57.6	59	43.4	0	1	248	0.00	29.857 
20:45	57.2	57.2	57.2	60	43.4	0	1	248	0.00	29.859 
20:50	56.9	56.9	56.9	61	43.6	0	0	---	0.00	29.859 
20:55	56.6	56.6	56.6	62	43.7	0	0	---	0.00	29.859 
21:00	56.3	56.3	56.3	64	44.3	0	0	---	0.00	29.863 
21:05	56.2	56.2	56.2	65	44.6	0	1	248	0.00	29.863 
21:10	56.0	56.0	56.0	66	44.8	0	1	248	0.00	29.863 
21:15	56.0	56.0	56.0	67	45.2	0	0	---	0.00	29.868 
21:20	55.9	55.9	55.9	68	45.5	0	1	248	0.00	29.868 
21:25	55.7	55.7	55.7	68	45.3	0	1	248	0.00	29.868 
21:30	55.7	55.7	55.7	69	45.7	0	0	---	0.00	29.871 
21:35	55.6	55.6	55.6	70	46.0	0	0	---	0.00	29.871 
21:40	55.6	55.6	55.6	70	46.0	0	0	---	0.00	29.871 
21:45	55.4	55.4	55.4	71	46.2	0	0	---	0.00	29.872 
21:50	55.1	55.1	55.1	72	46.2	0	1	248	0.00	29.872 
21:55	55.0	55.0	55.0	73	46.5	0	0	---	0.00	29.872 
22:00	54.8	54.8	54.8	73	46.3	0	0	---	0.00	29.874 
22:05	54.5	54.5	54.5	74	46.4	0	0	---	0.00	29.874 
22:10	54.4	54.4	54.4	75	46.6	0	1	248	0.00	29.874 
22:15	54.1	54.1	54.1	75	46.4	0	2	248	0.00	29.875 
22:20	53.8	53.8	53.8	75	46.1	0	0	---	0.00	29.875 
22:25	53.5	53.5	53.5	76	46.1	0	0	---	0.00	29.875 
22:30	53.2	53.2	53.2	76	45.8	0	0	---	0.00	29.882 
22:35	52.9	52.9	52.9	77	45.9	0	0	---	0.00	29.882 
22:40	52.8	52.8	52.8	77	45.8	0	0	---	0.00	29.882 
22:45	52.5	52.5	52.5	78	45.8	0	0	---	0.00	29.885 
22:50	52.3	52.3	52.3	78	45.6	0	0	---	0.00	29.885 
22:55	52.2	52.2	52.2	79	45.9	0	0	---	0.00	29.885 
23:00	52.0	52.0	52.0	79	45.7	0	0	---	0.00	29.888 
23:05	52.0	52.0	52.0	79	45.7	0	0	---	0.00	29.888 
23:10	52.0	52.0	52.0	80	46.0	0	0	---	0.00	29.888 
23:15	52.0	52.0	52.0	80	46.0	0	0	---	0.00	29.885 
23:20	52.0	52.0	52.0	80	46.0	0	0	---	0.00	29.885 
23:25	52.2	52.2	52.2	79	45.9	0	0	---	0.00	29.885 
23:30	52.2	52.2	52.2	79	45.9	0	1	248	0.00	29.885 
23:35	52.3	52.3	52.3	79	46.0	0	0	---	0.00	29.885 
23:40	52.3	52.3	52.3	79	46.0	0	0	---	0.00	29.885 
23:45	52.3	52.3	52.3	79	46.0	0	0	---	0.00	29.886 
23:50	52.3	52.3	52.3	79	46.0	0	0	---	0.00	29.886 
23:55	52.3	52.3	52.3	78	45.6	0	0	---	0.00	29.886 

CoCoRaHS
IN-AL-39
A2 Web Hosting
Creative Commons License
GoDaddy
search engine by freefind advanced

loaded 2018-11-15 03:35:29 • last modified 2010-11-18 10:43:29
Privacy PolicyDisclaimer
• wx.awcolley.com is powered by PmWiki v.2002016 •
• all content (unless otherwise noted) © 2018 A W Colley